createdAt,value
2023-03-23T15:57:57.771Z,98921.94
2023-03-23T16:00:00.918Z,98899.38
2023-03-23T16:02:04.405Z,98938.84
2023-03-23T16:04:11.004Z,98902.63
2023-03-23T16:06:25.047Z,98922.41
2023-03-23T16:08:28.196Z,98941.44
2023-03-23T16:10:30.878Z,98924.56
2023-03-23T16:12:34.403Z,98913.16
2023-03-23T16:14:36.728Z,98912.53
2023-03-23T16:16:51.038Z,98916.31
2023-03-23T16:18:54.373Z,98951.66
2023-03-23T16:20:56.957Z,98956.09
2023-03-23T16:22:59.831Z,98889.81
2023-03-23T16:25:02.296Z,98908.81
2023-03-23T16:27:05.289Z,98922.44
2023-03-23T16:29:20.502Z,98924.41
2023-03-23T16:31:36.377Z,98956.38
2023-03-23T16:33:38.889Z,98912.53
2023-03-23T16:35:44.408Z,98926.28
2023-03-23T16:38:07.102Z,98950.97
2023-03-23T16:40:12.864Z,98935.09
2023-03-23T16:42:15.184Z,98917.44
2023-03-23T16:44:18.332Z,98920.69
2023-03-23T16:46:21.089Z,98869.03
2023-03-23T16:48:24.583Z,98926.91
2023-03-23T16:50:28.118Z,98904.94
2023-03-23T16:52:30.673Z,98945.88
2023-03-23T16:54:33.449Z,98895.22
2023-03-23T16:56:36.350Z,98900.06
2023-03-23T16:58:38.847Z,98924.91
2023-03-23T17:00:43.220Z,98941.84
2023-03-23T17:02:47.428Z,98897.34
2023-03-23T17:04:50.329Z,98938.03
2023-03-23T17:06:53.300Z,98906.50
2023-03-23T17:08:56.043Z,98940.53
2023-03-23T17:10:58.654Z,98941.72
2023-03-23T17:13:02.380Z,98950.63
2023-03-23T17:15:05.880Z,98957.44
2023-03-23T17:17:10.392Z,98933.84
2023-03-23T17:19:14.726Z,98935.50
2023-03-23T17:21:17.782Z,98924.50
2023-03-23T17:23:20.335Z,98946.91
2023-03-23T17:25:23.058Z,98931.09
2023-03-23T17:27:26.360Z,98941.53
2023-03-23T17:29:28.850Z,98955.66
2023-03-23T17:31:31.906Z,98937.47
2023-03-23T17:33:34.499Z,98969.44
2023-03-23T17:35:37.200Z,98956.47
2023-03-23T17:37:39.835Z,98954.66
2023-03-23T17:39:44.023Z,98958.72
2023-03-23T17:41:47.541Z,98966.84
2023-03-23T17:43:50.610Z,98976.28
2023-03-23T17:45:53.084Z,98959.41
2023-03-23T17:47:56.094Z,98934.81
2023-03-23T17:49:58.584Z,98996.31
2023-03-23T17:52:00.965Z,98940.22
2023-03-23T17:54:03.907Z,98953.75
2023-03-23T17:56:07.816Z,98958.34
2023-03-23T17:58:10.909Z,98970.00
2023-03-23T18:00:14.361Z,98988.84
2023-03-23T18:02:26.076Z,98970.00
2023-03-23T18:04:29.105Z,98960.28
2023-03-23T18:06:33.023Z,98960.97
2023-03-23T18:08:37.032Z,98965.16
2023-03-23T18:10:41.361Z,98984.41
2023-03-23T18:12:44.125Z,98991.38
2023-03-23T18:14:47.141Z,98968.31
2023-03-23T18:17:28.616Z,99022.94
2023-03-23T18:19:31.548Z,98992.94
2023-03-23T18:21:34.753Z,98968.28
2023-03-23T18:23:49.097Z,99023.31
2023-03-23T18:25:56.269Z,98959.16
2023-03-23T18:28:05.594Z,98995.19
2023-03-23T18:30:10.455Z,98992.09
2023-03-23T18:32:13.551Z,98965.63
2023-03-23T18:34:16.487Z,99005.25
2023-03-23T18:36:21.591Z,99010.91
2023-03-23T18:38:25.806Z,98972.84
2023-03-23T18:40:28.574Z,98973.00
2023-03-23T18:42:31.454Z,98976.91
2023-03-23T18:44:34.292Z,99008.13
2023-03-23T18:46:38.303Z,98975.13
2023-03-23T18:48:41.131Z,98968.47
2023-03-23T18:50:48.501Z,98999.13
2023-03-23T18:52:51.162Z,98973.16
2023-03-23T18:54:54.193Z,98981.25
2023-03-23T18:57:00.487Z,98975.22
2023-03-23T18:59:03.687Z,98944.25
2023-03-23T19:01:09.440Z,98995.28
2023-03-23T19:03:15.027Z,98990.41
2023-03-23T19:05:18.015Z,99003.09
2023-03-23T19:07:20.944Z,99008.13
2023-03-23T19:09:23.737Z,98987.34
2023-03-23T19:11:27.929Z,98979.38
2023-03-23T19:13:34.526Z,98985.28
2023-03-23T19:15:41.669Z,98999.25
2023-03-23T19:17:45.207Z,99008.88
2023-03-23T19:19:47.779Z,99030.03
2023-03-23T19:21:50.683Z,99035.56
2023-03-23T19:23:54.998Z,98994.63
2023-03-23T19:25:58.135Z,99008.16
2023-03-23T19:30:07.564Z,99033.63
2023-03-23T19:32:10.559Z,99015.31
2023-03-23T19:34:14.093Z,99022.94
2023-03-23T19:36:18.538Z,99020.84
2023-03-23T19:38:23.506Z,99041.00
2023-03-23T19:40:39.029Z,99030.16
2023-03-23T19:42:43.828Z,98998.03
2023-03-23T19:44:47.627Z,99069.47
2023-03-23T19:46:51.064Z,99044.19
2023-03-23T19:48:54.604Z,99040.13
2023-03-23T19:50:58.054Z,99066.91
2023-03-23T19:53:01.415Z,99021.91
2023-03-23T19:55:04.979Z,99024.34
2023-03-23T19:57:09.202Z,99060.06
2023-03-23T19:59:15.086Z,99044.19
2023-03-23T20:01:18.616Z,99042.06
2023-03-23T20:03:21.969Z,99059.09
2023-03-23T20:05:24.817Z,99054.59
2023-03-23T20:07:28.262Z,99071.34
2023-03-23T20:09:31.177Z,99071.47
2023-03-23T20:11:34.620Z,99045.81
2023-03-23T20:13:38.072Z,99061.78
2023-03-23T20:15:41.167Z,99068.28
2023-03-23T20:17:44.486Z,99062.94
2023-03-23T20:19:47.147Z,99085.69
2023-03-23T20:23:57.300Z,99072.69
2023-03-23T20:26:04.237Z,99054.81
2023-03-23T20:28:07.631Z,99054.00
2023-03-23T20:30:10.873Z,99077.88
2023-03-23T20:32:14.065Z,99045.56
2023-03-23T20:34:29.556Z,99036.47
2023-03-23T20:36:36.370Z,99033.69
2023-03-23T20:38:42.546Z,99042.66
2023-03-23T20:40:46.113Z,99028.81
2023-03-23T20:42:49.853Z,99026.69
2023-03-23T20:44:52.750Z,99041.50
2023-03-23T20:46:56.552Z,99067.66
2023-03-23T20:48:59.451Z,99052.41
2023-03-23T20:51:04.531Z,99052.25
2023-03-23T20:53:07.570Z,99065.72
2023-03-23T20:55:10.195Z,99082.47
2023-03-23T20:57:13.824Z,99058.25
2023-03-23T20:59:17.329Z,99102.78
2023-03-23T21:01:21.870Z,99088.47
2023-03-23T21:03:34.873Z,99062.81
2023-03-23T21:05:44.228Z,99082.16
2023-03-23T21:07:49.092Z,99020.69
2023-03-23T21:09:51.613Z,99049.94
2023-03-23T21:11:54.705Z,99101.50
2023-03-23T21:13:57.276Z,99089.97
2023-03-23T21:16:02.433Z,99077.78
2023-03-23T21:20:31.210Z,99093.03
2023-03-23T21:22:35.196Z,99079.22
2023-03-23T21:24:38.944Z,99082.63
2023-03-23T21:26:41.412Z,99074.63
2023-03-23T21:28:44.777Z,99091.06
2023-03-23T21:30:49.758Z,99039.34
2023-03-23T21:32:52.740Z,99062.41
2023-03-23T21:34:55.953Z,99080.31
2023-03-23T21:36:58.594Z,99049.91
2023-03-23T21:39:02.537Z,99064.69
2023-03-23T21:41:11.837Z,99070.06
2023-03-23T21:43:16.697Z,99073.31
2023-03-23T21:45:21.347Z,99052.00
2023-03-23T21:47:24.456Z,99061.75
2023-03-23T21:49:27.186Z,99052.63
2023-03-23T21:51:30.168Z,99038.16
2023-03-23T21:53:34.170Z,99057.78
2023-03-23T21:55:36.864Z,99071.03
2023-03-23T21:57:41.130Z,99109.75
2023-03-23T21:59:43.911Z,99093.44
2023-03-23T22:01:48.266Z,99077.13
2023-03-23T22:04:09.280Z,99044.53
2023-03-23T22:06:31.869Z,99057.66
2023-03-23T22:08:34.887Z,99054.63
2023-03-23T22:10:43.704Z,99059.56
2023-03-23T22:13:03.939Z,99082.72
2023-03-23T22:15:08.966Z,99062.22
2023-03-23T22:17:12.046Z,99083.69
2023-03-23T22:19:14.724Z,99023.81
2023-03-23T22:21:18.410Z,99057.66
2023-03-23T22:23:21.270Z,99052.47
2023-03-23T22:25:24.849Z,99037.03
2023-03-23T22:27:27.871Z,99053.75
2023-03-23T22:29:30.275Z,99045.56
2023-03-23T22:31:35.225Z,99050.44
2023-03-23T22:33:38.850Z,99061.63
2023-03-23T22:35:41.283Z,99067.94
2023-03-23T22:37:43.963Z,99096.25
2023-03-23T22:39:46.668Z,99072.41
2023-03-23T22:41:49.029Z,99087.19
2023-03-23T22:43:51.635Z,99014.56
2023-03-23T22:45:55.143Z,99073.25
2023-03-23T22:47:58.637Z,99058.91
2023-03-23T22:50:01.085Z,99072.84
2023-03-23T22:52:04.127Z,99076.25
2023-03-23T22:54:07.138Z,99064.28
2023-03-23T22:56:10.467Z,99104.91
2023-03-23T22:58:13.570Z,99054.88
2023-03-23T23:00:16.240Z,99061.28
2023-03-23T23:02:18.864Z,99097.22
2023-03-23T23:04:21.519Z,99076.06
2023-03-23T23:06:25.498Z,99045.66
2023-03-23T23:08:29.539Z,99073.63
2023-03-23T23:10:35.123Z,99087.09
2023-03-23T23:12:37.516Z,99057.94
2023-03-23T23:14:43.518Z,99058.28
2023-03-23T23:16:46.600Z,99006.81
2023-03-23T23:18:52.933Z,99076.59
2023-03-23T23:21:00.858Z,99099.84
2023-03-23T23:23:04.338Z,99094.38
2023-03-23T23:25:08.595Z,99025.03
2023-03-23T23:27:10.872Z,99062.53
2023-03-23T23:29:13.749Z,99007.38
2023-03-23T23:31:29.673Z,99106.00
2023-03-23T23:33:32.808Z,99070.22
2023-03-23T23:35:37.415Z,99077.53
2023-03-23T23:37:40.281Z,99094.06
2023-03-23T23:39:43.072Z,99061.19
2023-03-23T23:41:45.414Z,99067.25
2023-03-23T23:43:48.283Z,99102.94
2023-03-23T23:45:51.228Z,99072.28
2023-03-23T23:47:53.626Z,99093.56
2023-03-23T23:49:56.304Z,99072.25
2023-03-23T23:51:58.609Z,99069.94
2023-03-23T23:54:02.000Z,99093.91
2023-03-23T23:56:06.387Z,99072.44
2023-03-23T23:58:08.713Z,99072.50
